This is the latest recevied weather packets stored in our database for station/object YO8PIC-4. If no packets are shown the sender has not sent any weather packets the latest 10 day(s).
| Time | Temp. | Humidity | Pressure | Rain* | Wind** | Luminosity | Snow |
|---|---|---|---|---|---|---|---|
| 1778143985 | 26.67° C | 38% | 1012.5 hPa | - | - | - | - |
| 1778143385 | 27.22° C | 36% | 1012.5 hPa | - | - | - | - |
| 1778142785 | 27.22° C | 34% | 1012.5 hPa | - | - | - | - |
| 1778142185 | 26.67° C | 36% | 1012.5 hPa | - | - | - | - |
| 1778141584 | 27.22° C | 35% | 1012.6 hPa | - | - | - | - |
| 1778140984 | 26.67° C | 37% | 1012.6 hPa | - | - | - | - |
| 1778140384 | 26.67° C | 35% | 1012.7 hPa | - | - | - | - |
| 1778139784 | 27.22° C | 40% | 1012.6 hPa | - | - | - | - |
| 1778139184 | 27.22° C | 43% | 1012.7 hPa | - | - | - | - |
| 1778138584 | 28.33° C | 44% | 1012.8 hPa | - | - | - | - |
| 1778137983 | 28.33° C | 46% | 1012.6 hPa | - | - | - | - |
| 1778137383 | 26.67° C | 51% | 1012.7 hPa | - | - | - | - |
| 1778136783 | 26.67° C | 50% | 1012.8 hPa | - | - | - | - |
| 1778136183 | 26.67° C | 51% | 1012.8 hPa | - | - | - | - |
| 1778135583 | 26.67° C | 50% | 1012.7 hPa | - | - | - | - |
| 1778134983 | 28.33° C | 46% | 1012.8 hPa | - | - | - | - |
| 1778134383 | 28.33° C | 47% | 1012.8 hPa | - | - | - | - |
| 1778133783 | 27.22° C | 48% | 1011.7 hPa | - | - | - | - |
| 1778133181 | 27.78° C | 48% | 1012.8 hPa | - | - | - | - |
| 1778132581 | 27.22° C | 51% | 1012.8 hPa | - | - | - | - |
| 1778131981 | 26.67° C | 52% | 1012.8 hPa | - | - | - | - |
| 1778131381 | 26.11° C | 53% | 1011.9 hPa | - | - | - | - |
| 1778130780 | 26.67° C | 52% | 1012.7 hPa | - | - | - | - |
| 1778130180 | 26.67° C | 52% | 1012.7 hPa | - | - | - | - |
| 1778129580 | 26.11° C | 50% | 1011.9 hPa | - | - | - | - |
* Rain since midnight (hover to see other rain measurements)
** Current wind speed in m/s (hover to see current wind gust speed)